sensor_id;sensor_type;location;lat;lon;timestamp;P1;durP1;ratioP1;P2;durP2;ratioP2
3083;SDS011;1552;51.952;7.618;2023-05-21T00:00:39;7.00;;;4.57;;
3083;SDS011;1552;51.952;7.618;2023-05-21T00:03:06;8.97;;;5.17;;
3083;SDS011;1552;51.952;7.618;2023-05-21T00:05:37;5.10;;;4.40;;
3083;SDS011;1552;51.952;7.618;2023-05-21T00:08:04;6.43;;;4.90;;
3083;SDS011;1552;51.952;7.618;2023-05-21T00:10:32;10.13;;;5.23;;
3083;SDS011;1552;51.952;7.618;2023-05-21T00:12:58;5.70;;;4.83;;
3083;SDS011;1552;51.952;7.618;2023-05-21T00:15:25;6.83;;;4.80;;
3083;SDS011;1552;51.952;7.618;2023-05-21T00:17:51;6.50;;;4.40;;
3083;SDS011;1552;51.952;7.618;2023-05-21T00:20:17;5.40;;;4.43;;
3083;SDS011;1552;51.952;7.618;2023-05-21T00:22:44;9.93;;;4.03;;
3083;SDS011;1552;51.952;7.618;2023-05-21T00:25:10;6.93;;;5.00;;
3083;SDS011;1552;51.952;7.618;2023-05-21T00:27:38;6.70;;;4.90;;
3083;SDS011;1552;51.952;7.618;2023-05-21T00:30:04;5.83;;;4.90;;
3083;SDS011;1552;51.952;7.618;2023-05-21T00:32:31;6.50;;;4.73;;
3083;SDS011;1552;51.952;7.618;2023-05-21T00:34:57;8.20;;;4.83;;
3083;SDS011;1552;51.952;7.618;2023-05-21T00:37:24;7.90;;;4.33;;
3083;SDS011;1552;51.952;7.618;2023-05-21T00:39:50;11.03;;;5.40;;
3083;SDS011;1552;51.952;7.618;2023-05-21T00:42:16;8.47;;;5.30;;
3083;SDS011;1552;51.952;7.618;2023-05-21T00:44:44;6.17;;;4.77;;
3083;SDS011;1552;51.952;7.618;2023-05-21T00:47:10;7.43;;;4.87;;
3083;SDS011;1552;51.952;7.618;2023-05-21T00:49:37;5.90;;;4.93;;
3083;SDS011;1552;51.952;7.618;2023-05-21T00:52:04;8.40;;;4.33;;
3083;SDS011;1552;51.952;7.618;2023-05-21T00:54:31;6.87;;;4.90;;
3083;SDS011;1552;51.952;7.618;2023-05-21T00:56:57;5.40;;;4.60;;
3083;SDS011;1552;51.952;7.618;2023-05-21T00:59:24;6.43;;;5.17;;
3083;SDS011;1552;51.952;7.618;2023-05-21T01:01:52;7.23;;;4.80;;
3083;SDS011;1552;51.952;7.618;2023-05-21T01:04:21;6.43;;;5.17;;
3083;SDS011;1552;51.952;7.618;2023-05-21T01:06:47;7.27;;;5.07;;
3083;SDS011;1552;51.952;7.618;2023-05-21T01:09:13;6.77;;;5.07;;
3083;SDS011;1552;51.952;7.618;2023-05-21T01:11:41;6.80;;;5.30;;
3083;SDS011;1552;51.952;7.618;2023-05-21T01:14:09;7.63;;;5.20;;
3083;SDS011;1552;51.952;7.618;2023-05-21T01:16:36;6.90;;;5.37;;
3083;SDS011;1552;51.952;7.618;2023-05-21T01:19:06;6.50;;;5.10;;
3083;SDS011;1552;51.952;7.618;2023-05-21T01:21:34;7.00;;;5.47;;
3083;SDS011;1552;51.952;7.618;2023-05-21T01:24:03;6.53;;;4.80;;
3083;SDS011;1552;51.952;7.618;2023-05-21T01:26:31;7.17;;;4.77;;
3083;SDS011;1552;51.952;7.618;2023-05-21T01:29:02;8.70;;;5.93;;
3083;SDS011;1552;51.952;7.618;2023-05-21T01:31:34;8.07;;;5.07;;
3083;SDS011;1552;51.952;7.618;2023-05-21T01:34:02;6.60;;;5.27;;
3083;SDS011;1552;51.952;7.618;2023-05-21T01:36:31;7.30;;;5.70;;
3083;SDS011;1552;51.952;7.618;2023-05-21T01:39:00;8.03;;;5.07;;
3083;SDS011;1552;51.952;7.618;2023-05-21T01:41:30;6.90;;;5.13;;
3083;SDS011;1552;51.952;7.618;2023-05-21T01:43:58;7.17;;;5.40;;
3083;SDS011;1552;51.952;7.618;2023-05-21T01:46:26;7.90;;;5.30;;
3083;SDS011;1552;51.952;7.618;2023-05-21T01:48:52;9.70;;;5.57;;
3083;SDS011;1552;51.952;7.618;2023-05-21T01:51:20;9.47;;;5.60;;
3083;SDS011;1552;51.952;7.618;2023-05-21T01:53:46;8.23;;;5.83;;
3083;SDS011;1552;51.952;7.618;2023-05-21T01:56:12;8.53;;;5.83;;
3083;SDS011;1552;51.952;7.618;2023-05-21T01:58:41;11.07;;;5.33;;
3083;SDS011;1552;51.952;7.618;2023-05-21T02:01:08;6.30;;;5.10;;
3083;SDS011;1552;51.952;7.618;2023-05-21T02:03:35;7.93;;;5.00;;
3083;SDS011;1552;51.952;7.618;2023-05-21T02:06:02;6.17;;;5.53;;
3083;SDS011;1552;51.952;7.618;2023-05-21T02:08:28;7.80;;;6.07;;
3083;SDS011;1552;51.952;7.618;2023-05-21T02:10:55;11.20;;;5.73;;
3083;SDS011;1552;51.952;7.618;2023-05-21T02:13:21;7.80;;;5.33;;
3083;SDS011;1552;51.952;7.618;2023-05-21T02:15:50;7.67;;;5.53;;
3083;SDS011;1552;51.952;7.618;2023-05-21T02:18:18;9.80;;;6.47;;
3083;SDS011;1552;51.952;7.618;2023-05-21T02:20:45;9.20;;;6.00;;
3083;SDS011;1552;51.952;7.618;2023-05-21T02:23:11;7.50;;;5.53;;
3083;SDS011;1552;51.952;7.618;2023-05-21T02:25:38;8.50;;;6.47;;
3083;SDS011;1552;51.952;7.618;2023-05-21T02:28:04;9.00;;;6.23;;
3083;SDS011;1552;51.952;7.618;2023-05-21T02:30:31;9.30;;;6.50;;
3083;SDS011;1552;51.952;7.618;2023-05-21T02:32:58;8.47;;;6.00;;
3083;SDS011;1552;51.952;7.618;2023-05-21T02:35:26;8.33;;;6.10;;
3083;SDS011;1552;51.952;7.618;2023-05-21T02:37:53;7.70;;;5.73;;
3083;SDS011;1552;51.952;7.618;2023-05-21T02:40:22;8.43;;;6.30;;
3083;SDS011;1552;51.952;7.618;2023-05-21T02:42:49;7.13;;;5.90;;
3083;SDS011;1552;51.952;7.618;2023-05-21T02:45:15;9.60;;;6.43;;
3083;SDS011;1552;51.952;7.618;2023-05-21T02:47:41;9.77;;;6.70;;
3083;SDS011;1552;51.952;7.618;2023-05-21T02:50:09;10.20;;;6.60;;
3083;SDS011;1552;51.952;7.618;2023-05-21T02:52:36;9.00;;;6.30;;
3083;SDS011;1552;51.952;7.618;2023-05-21T02:55:02;8.70;;;5.90;;
3083;SDS011;1552;51.952;7.618;2023-05-21T02:57:29;8.03;;;6.73;;
3083;SDS011;1552;51.952;7.618;2023-05-21T02:59:55;9.23;;;6.43;;
3083;SDS011;1552;51.952;7.618;2023-05-21T03:02:21;9.13;;;7.20;;
3083;SDS011;1552;51.952;7.618;2023-05-21T03:04:48;8.17;;;6.20;;
3083;SDS011;1552;51.952;7.618;2023-05-21T03:07:16;10.67;;;7.07;;
3083;SDS011;1552;51.952;7.618;2023-05-21T03:09:43;10.20;;;6.43;;
3083;SDS011;1552;51.952;7.618;2023-05-21T03:12:10;10.27;;;6.67;;
3083;SDS011;1552;51.952;7.618;2023-05-21T03:14:36;9.30;;;7.00;;
3083;SDS011;1552;51.952;7.618;2023-05-21T03:17:03;10.17;;;6.20;;
3083;SDS011;1552;51.952;7.618;2023-05-21T03:19:30;9.93;;;6.57;;
3083;SDS011;1552;51.952;7.618;2023-05-21T03:21:58;8.37;;;6.37;;
3083;SDS011;1552;51.952;7.618;2023-05-21T03:24:26;9.53;;;6.43;;
3083;SDS011;1552;51.952;7.618;2023-05-21T03:26:53;11.77;;;6.77;;
3083;SDS011;1552;51.952;7.618;2023-05-21T03:29:19;7.40;;;6.33;;
3083;SDS011;1552;51.952;7.618;2023-05-21T03:31:45;9.70;;;6.43;;
3083;SDS011;1552;51.952;7.618;2023-05-21T03:34:12;9.30;;;6.93;;
3083;SDS011;1552;51.952;7.618;2023-05-21T03:36:38;9.77;;;6.97;;
3083;SDS011;1552;51.952;7.618;2023-05-21T03:39:05;9.50;;;6.20;;
3083;SDS011;1552;51.952;7.618;2023-05-21T03:41:32;12.93;;;7.33;;
3083;SDS011;1552;51.952;7.618;2023-05-21T03:43:59;9.40;;;6.83;;
3083;SDS011;1552;51.952;7.618;2023-05-21T03:46:25;10.60;;;6.97;;
3083;SDS011;1552;51.952;7.618;2023-05-21T03:48:52;10.60;;;6.87;;
3083;SDS011;1552;51.952;7.618;2023-05-21T03:51:18;11.63;;;7.07;;
3083;SDS011;1552;51.952;7.618;2023-05-21T03:53:45;11.27;;;6.57;;
3083;SDS011;1552;51.952;7.618;2023-05-21T03:56:11;11.40;;;7.13;;
3083;SDS011;1552;51.952;7.618;2023-05-21T03:58:39;9.60;;;7.50;;
3083;SDS011;1552;51.952;7.618;2023-05-21T04:01:05;9.07;;;7.20;;
3083;SDS011;1552;51.952;7.618;2023-05-21T04:03:32;13.77;;;7.60;;
3083;SDS011;1552;51.952;7.618;2023-05-21T04:05:59;12.03;;;7.40;;
3083;SDS011;1552;51.952;7.618;2023-05-21T04:08:25;9.60;;;7.07;;
3083;SDS011;1552;51.952;7.618;2023-05-21T04:10:51;9.43;;;6.73;;
3083;SDS011;1552;51.952;7.618;2023-05-21T04:13:18;11.27;;;7.33;;
3083;SDS011;1552;51.952;7.618;2023-05-21T04:15:46;12.37;;;7.10;;
3083;SDS011;1552;51.952;7.618;2023-05-21T04:18:12;8.90;;;7.00;;
3083;SDS011;1552;51.952;7.618;2023-05-21T04:20:40;8.73;;;6.60;;
3083;SDS011;1552;51.952;7.618;2023-05-21T04:23:06;9.10;;;6.50;;
3083;SDS011;1552;51.952;7.618;2023-05-21T04:25:33;11.60;;;8.00;;
3083;SDS011;1552;51.952;7.618;2023-05-21T04:27:59;9.50;;;7.33;;
3083;SDS011;1552;51.952;7.618;2023-05-21T04:30:26;9.10;;;6.97;;
3083;SDS011;1552;51.952;7.618;2023-05-21T04:32:53;8.60;;;7.23;;
3083;SDS011;1552;51.952;7.618;2023-05-21T04:35:20;10.17;;;6.97;;
3083;SDS011;1552;51.952;7.618;2023-05-21T04:37:47;10.70;;;7.17;;
3083;SDS011;1552;51.952;7.618;2023-05-21T04:40:13;10.07;;;7.40;;
3083;SDS011;1552;51.952;7.618;2023-05-21T04:42:42;9.40;;;7.33;;
3083;SDS011;1552;51.952;7.618;2023-05-21T04:45:09;10.03;;;7.67;;
3083;SDS011;1552;51.952;7.618;2023-05-21T04:47:35;13.47;;;7.93;;
3083;SDS011;1552;51.952;7.618;2023-05-21T04:50:03;10.43;;;7.50;;
3083;SDS011;1552;51.952;7.618;2023-05-21T04:52:30;9.97;;;7.73;;
3083;SDS011;1552;51.952;7.618;2023-05-21T04:54:58;11.37;;;7.63;;
3083;SDS011;1552;51.952;7.618;2023-05-21T04:57:25;9.37;;;7.00;;
3083;SDS011;1552;51.952;7.618;2023-05-21T04:59:52;11.57;;;7.37;;
3083;SDS011;1552;51.952;7.618;2023-05-21T05:02:18;9.63;;;7.50;;
3083;SDS011;1552;51.952;7.618;2023-05-21T05:04:44;8.07;;;6.40;;
3083;SDS011;1552;51.952;7.618;2023-05-21T05:07:12;11.17;;;7.57;;
3083;SDS011;1552;51.952;7.618;2023-05-21T05:09:39;9.97;;;7.57;;
3083;SDS011;1552;51.952;7.618;2023-05-21T05:12:05;10.67;;;7.50;;
3083;SDS011;1552;51.952;7.618;2023-05-21T05:14:32;10.70;;;7.33;;
3083;SDS011;1552;51.952;7.618;2023-05-21T05:16:58;9.03;;;7.13;;
3083;SDS011;1552;51.952;7.618;2023-05-21T05:19:24;10.47;;;7.50;;
3083;SDS011;1552;51.952;7.618;2023-05-21T05:21:51;11.37;;;7.67;;
3083;SDS011;1552;51.952;7.618;2023-05-21T05:24:18;12.30;;;8.33;;
3083;SDS011;1552;51.952;7.618;2023-05-21T05:26:45;10.80;;;7.60;;
3083;SDS011;1552;51.952;7.618;2023-05-21T05:29:11;11.30;;;7.83;;
3083;SDS011;1552;51.952;7.618;2023-05-21T05:31:37;10.43;;;7.50;;
3083;SDS011;1552;51.952;7.618;2023-05-21T05:34:04;12.00;;;7.83;;
3083;SDS011;1552;51.952;7.618;2023-05-21T05:36:30;10.87;;;7.73;;
3083;SDS011;1552;51.952;7.618;2023-05-21T05:38:57;10.93;;;8.47;;
3083;SDS011;1552;51.952;7.618;2023-05-21T05:41:25;8.50;;;7.43;;
3083;SDS011;1552;51.952;7.618;2023-05-21T05:43:51;11.33;;;8.00;;
3083;SDS011;1552;51.952;7.618;2023-05-21T05:46:18;12.47;;;7.70;;
3083;SDS011;1552;51.952;7.618;2023-05-21T05:48:44;10.53;;;7.60;;
3083;SDS011;1552;51.952;7.618;2023-05-21T05:51:10;10.63;;;7.47;;
3083;SDS011;1552;51.952;7.618;2023-05-21T05:53:36;12.60;;;8.00;;
3083;SDS011;1552;51.952;7.618;2023-05-21T05:56:03;12.13;;;8.00;;
3083;SDS011;1552;51.952;7.618;2023-05-21T05:58:31;10.20;;;6.90;;
3083;SDS011;1552;51.952;7.618;2023-05-21T06:00:57;11.67;;;8.37;;
3083;SDS011;1552;51.952;7.618;2023-05-21T06:03:24;11.00;;;7.60;;
3083;SDS011;1552;51.952;7.618;2023-05-21T06:05:50;15.00;;;7.90;;
3083;SDS011;1552;51.952;7.618;2023-05-21T06:08:16;10.43;;;7.70;;
3083;SDS011;1552;51.952;7.618;2023-05-21T06:10:43;9.73;;;7.30;;
3083;SDS011;1552;51.952;7.618;2023-05-21T06:13:09;11.83;;;7.70;;
3083;SDS011;1552;51.952;7.618;2023-05-21T06:15:37;9.60;;;7.83;;
3083;SDS011;1552;51.952;7.618;2023-05-21T06:18:06;10.03;;;7.27;;
3083;SDS011;1552;51.952;7.618;2023-05-21T06:20:33;11.63;;;7.93;;
3083;SDS011;1552;51.952;7.618;2023-05-21T06:22:59;10.30;;;8.07;;
3083;SDS011;1552;51.952;7.618;2023-05-21T06:25:25;9.47;;;6.93;;
3083;SDS011;1552;51.952;7.618;2023-05-21T06:27:52;13.85;;;7.93;;
3083;SDS011;1552;51.952;7.618;2023-05-21T06:30:18;10.33;;;7.37;;
3083;SDS011;1552;51.952;7.618;2023-05-21T06:32:46;10.23;;;8.23;;
3083;SDS011;1552;51.952;7.618;2023-05-21T06:35:12;10.60;;;8.10;;
3083;SDS011;1552;51.952;7.618;2023-05-21T06:37:38;12.40;;;7.50;;
3083;SDS011;1552;51.952;7.618;2023-05-21T06:40:05;10.30;;;8.67;;
3083;SDS011;1552;51.952;7.618;2023-05-21T06:42:32;12.20;;;8.30;;
3083;SDS011;1552;51.952;7.618;2023-05-21T06:44:58;12.43;;;7.73;;
3083;SDS011;1552;51.952;7.618;2023-05-21T06:47:25;11.37;;;7.37;;
3083;SDS011;1552;51.952;7.618;2023-05-21T06:49:52;10.07;;;7.43;;
3083;SDS011;1552;51.952;7.618;2023-05-21T06:52:19;15.50;;;7.83;;
3083;SDS011;1552;51.952;7.618;2023-05-21T06:54:45;9.83;;;7.83;;
3083;SDS011;1552;51.952;7.618;2023-05-21T06:57:12;9.23;;;7.73;;
3083;SDS011;1552;51.952;7.618;2023-05-21T06:59:38;10.50;;;7.93;;
3083;SDS011;1552;51.952;7.618;2023-05-21T07:02:05;13.33;;;9.03;;
3083;SDS011;1552;51.952;7.618;2023-05-21T07:04:31;9.67;;;7.40;;
3083;SDS011;1552;51.952;7.618;2023-05-21T07:07:00;13.97;;;7.50;;
3083;SDS011;1552;51.952;7.618;2023-05-21T07:09:28;11.13;;;7.97;;
3083;SDS011;1552;51.952;7.618;2023-05-21T07:11:54;11.73;;;8.70;;
3083;SDS011;1552;51.952;7.618;2023-05-21T07:14:21;10.77;;;7.60;;
3083;SDS011;1552;51.952;7.618;2023-05-21T07:16:47;12.83;;;8.33;;
3083;SDS011;1552;51.952;7.618;2023-05-21T07:19:13;12.32;;;7.82;;
3083;SDS011;1552;51.952;7.618;2023-05-21T07:21:40;13.75;;;8.43;;
3083;SDS011;1552;51.952;7.618;2023-05-21T07:24:07;13.00;;;7.63;;
3083;SDS011;1552;51.952;7.618;2023-05-21T07:26:34;12.07;;;8.70;;
3083;SDS011;1552;51.952;7.618;2023-05-21T07:29:00;11.55;;;7.72;;
3083;SDS011;1552;51.952;7.618;2023-05-21T07:31:26;11.65;;;7.80;;
3083;SDS011;1552;51.952;7.618;2023-05-21T07:33:53;9.68;;;7.50;;
3083;SDS011;1552;51.952;7.618;2023-05-21T07:36:19;10.27;;;7.53;;
3083;SDS011;1552;51.952;7.618;2023-05-21T07:38:45;9.80;;;7.55;;
3083;SDS011;1552;51.952;7.618;2023-05-21T07:41:13;9.48;;;7.03;;
3083;SDS011;1552;51.952;7.618;2023-05-21T07:43:39;10.10;;;7.50;;
3083;SDS011;1552;51.952;7.618;2023-05-21T07:46:05;10.82;;;7.82;;
3083;SDS011;1552;51.952;7.618;2023-05-21T07:48:32;11.40;;;7.97;;
3083;SDS011;1552;51.952;7.618;2023-05-21T07:50:58;12.63;;;7.88;;
3083;SDS011;1552;51.952;7.618;2023-05-21T07:53:25;12.48;;;7.93;;
3083;SDS011;1552;51.952;7.618;2023-05-21T07:55:52;10.77;;;8.35;;
3083;SDS011;1552;51.952;7.618;2023-05-21T07:58:20;16.13;;;7.93;;
3083;SDS011;1552;51.952;7.618;2023-05-21T08:00:47;9.73;;;7.07;;
3083;SDS011;1552;51.952;7.618;2023-05-21T08:03:15;12.57;;;8.48;;
3083;SDS011;1552;51.952;7.618;2023-05-21T08:05:41;9.07;;;7.22;;
3083;SDS011;1552;51.952;7.618;2023-05-21T08:08:09;11.48;;;7.45;;
3083;SDS011;1552;51.952;7.618;2023-05-21T08:10:35;11.07;;;7.72;;
3083;SDS011;1552;51.952;7.618;2023-05-21T08:13:01;13.15;;;8.40;;
3083;SDS011;1552;51.952;7.618;2023-05-21T08:15:29;12.75;;;8.13;;
3083;SDS011;1552;51.952;7.618;2023-05-21T08:17:55;12.80;;;8.88;;
3083;SDS011;1552;51.952;7.618;2023-05-21T08:20:22;9.43;;;8.15;;
3083;SDS011;1552;51.952;7.618;2023-05-21T08:22:48;12.73;;;8.50;;
3083;SDS011;1552;51.952;7.618;2023-05-21T08:25:14;10.35;;;8.02;;
3083;SDS011;1552;51.952;7.618;2023-05-21T08:27:41;11.52;;;8.45;;
3083;SDS011;1552;51.952;7.618;2023-05-21T08:30:07;12.35;;;7.88;;
3083;SDS011;1552;51.952;7.618;2023-05-21T08:32:36;11.48;;;9.30;;
3083;SDS011;1552;51.952;7.618;2023-05-21T08:35:03;12.98;;;8.77;;
3083;SDS011;1552;51.952;7.618;2023-05-21T08:37:30;11.75;;;8.77;;
3083;SDS011;1552;51.952;7.618;2023-05-21T08:39:56;15.00;;;8.80;;
3083;SDS011;1552;51.952;7.618;2023-05-21T08:42:35;12.40;;;8.25;;
3083;SDS011;1552;51.952;7.618;2023-05-21T08:45:03;12.05;;;8.55;;
3083;SDS011;1552;51.952;7.618;2023-05-21T08:47:31;11.88;;;9.07;;
3083;SDS011;1552;51.952;7.618;2023-05-21T08:50:00;12.20;;;8.68;;
3083;SDS011;1552;51.952;7.618;2023-05-21T08:52:28;10.48;;;8.60;;
3083;SDS011;1552;51.952;7.618;2023-05-21T08:54:55;12.70;;;9.35;;
3083;SDS011;1552;51.952;7.618;2023-05-21T08:57:21;12.40;;;9.30;;
3083;SDS011;1552;51.952;7.618;2023-05-21T08:59:48;14.50;;;9.50;;
3083;SDS011;1552;51.952;7.618;2023-05-21T09:02:14;13.75;;;9.30;;
3083;SDS011;1552;51.952;7.618;2023-05-21T09:04:42;11.50;;;9.02;;
3083;SDS011;1552;51.952;7.618;2023-05-21T09:07:14;12.75;;;9.00;;
3083;SDS011;1552;51.952;7.618;2023-05-21T09:09:43;10.85;;;9.20;;
3083;SDS011;1552;51.952;7.618;2023-05-21T09:12:11;13.52;;;9.73;;
3083;SDS011;1552;51.952;7.618;2023-05-21T09:14:37;12.15;;;8.85;;
3083;SDS011;1552;51.952;7.618;2023-05-21T09:17:04;14.27;;;9.27;;
3083;SDS011;1552;51.952;7.618;2023-05-21T09:19:30;12.68;;;10.25;;
3083;SDS011;1552;51.952;7.618;2023-05-21T09:22:00;12.75;;;8.55;;
3083;SDS011;1552;51.952;7.618;2023-05-21T09:24:27;12.57;;;9.70;;
3083;SDS011;1552;51.952;7.618;2023-05-21T09:26:56;14.85;;;8.90;;
3083;SDS011;1552;51.952;7.618;2023-05-21T09:29:22;13.35;;;10.02;;
3083;SDS011;1552;51.952;7.618;2023-05-21T09:31:50;14.10;;;9.80;;
3083;SDS011;1552;51.952;7.618;2023-05-21T09:34:18;12.90;;;9.90;;
3083;SDS011;1552;51.952;7.618;2023-05-21T09:36:45;13.57;;;10.52;;
3083;SDS011;1552;51.952;7.618;2023-05-21T09:39:14;17.42;;;11.70;;
3083;SDS011;1552;51.952;7.618;2023-05-21T09:41:54;14.02;;;10.02;;
3083;SDS011;1552;51.952;7.618;2023-05-21T09:44:21;12.30;;;9.98;;
3083;SDS011;1552;51.952;7.618;2023-05-21T09:46:48;14.90;;;11.32;;
3083;SDS011;1552;51.952;7.618;2023-05-21T09:49:21;14.88;;;10.88;;
3083;SDS011;1552;51.952;7.618;2023-05-21T09:51:47;15.43;;;10.50;;
3083;SDS011;1552;51.952;7.618;2023-05-21T09:54:13;14.25;;;11.15;;
3083;SDS011;1552;51.952;7.618;2023-05-21T09:56:40;15.48;;;11.38;;
3083;SDS011;1552;51.952;7.618;2023-05-21T09:59:08;15.90;;;11.80;;
3083;SDS011;1552;51.952;7.618;2023-05-21T10:01:34;13.60;;;10.60;;
3083;SDS011;1552;51.952;7.618;2023-05-21T10:04:03;18.30;;;12.60;;
3083;SDS011;1552;51.952;7.618;2023-05-21T10:06:31;14.05;;;10.27;;
3083;SDS011;1552;51.952;7.618;2023-05-21T10:09:00;16.17;;;11.77;;
3083;SDS011;1552;51.952;7.618;2023-05-21T10:11:29;14.98;;;11.60;;
3083;SDS011;1552;51.952;7.618;2023-05-21T10:13:56;16.08;;;12.02;;
3083;SDS011;1552;51.952;7.618;2023-05-21T10:16:24;18.40;;;12.85;;
3083;SDS011;1552;51.952;7.618;2023-05-21T10:18:51;19.70;;;12.95;;
3083;SDS011;1552;51.952;7.618;2023-05-21T10:21:20;19.77;;;12.63;;
3083;SDS011;1552;51.952;7.618;2023-05-21T10:23:47;16.08;;;12.40;;
3083;SDS011;1552;51.952;7.618;2023-05-21T10:26:13;17.95;;;13.25;;
3083;SDS011;1552;51.952;7.618;2023-05-21T10:28:40;19.90;;;14.88;;
3083;SDS011;1552;51.952;7.618;2023-05-21T10:31:07;19.98;;;13.70;;
3083;SDS011;1552;51.952;7.618;2023-05-21T10:33:35;18.38;;;13.45;;
3083;SDS011;1552;51.952;7.618;2023-05-21T10:36:02;16.45;;;11.25;;
3083;SDS011;1552;51.952;7.618;2023-05-21T10:38:28;19.38;;;12.48;;
3083;SDS011;1552;51.952;7.618;2023-05-21T10:40:55;15.95;;;12.35;;
3083;SDS011;1552;51.952;7.618;2023-05-21T10:43:30;16.17;;;12.35;;
3083;SDS011;1552;51.952;7.618;2023-05-21T10:48:47;15.35;;;12.07;;
3083;SDS011;1552;51.952;7.618;2023-05-21T10:51:17;16.17;;;11.90;;
3083;SDS011;1552;51.952;7.618;2023-05-21T10:54:07;16.48;;;12.98;;
3083;SDS011;1552;51.952;7.618;2023-05-21T10:56:40;16.40;;;13.13;;
3083;SDS011;1552;51.952;7.618;2023-05-21T10:59:17;17.33;;;12.43;;
3083;SDS011;1552;51.952;7.618;2023-05-21T11:01:47;15.07;;;11.88;;
3083;SDS011;1552;51.952;7.618;2023-05-21T11:04:16;17.35;;;12.52;;
3083;SDS011;1552;51.952;7.618;2023-05-21T11:06:45;18.38;;;11.80;;
3083;SDS011;1552;51.952;7.618;2023-05-21T11:09:12;17.50;;;13.05;;
3083;SDS011;1552;51.952;7.618;2023-05-21T11:11:39;17.20;;;12.68;;
3083;SDS011;1552;51.952;7.618;2023-05-21T11:16:48;15.35;;;11.88;;
3083;SDS011;1552;51.952;7.618;2023-05-21T11:19:16;18.55;;;11.80;;
3083;SDS011;1552;51.952;7.618;2023-05-21T11:21:43;15.73;;;11.25;;
3083;SDS011;1552;51.952;7.618;2023-05-21T11:24:17;15.25;;;11.93;;
3083;SDS011;1552;51.952;7.618;2023-05-21T11:26:59;15.80;;;11.77;;
3083;SDS011;1552;51.952;7.618;2023-05-21T11:29:31;17.40;;;12.15;;
3083;SDS011;1552;51.952;7.618;2023-05-21T11:31:58;14.95;;;12.50;;
3083;SDS011;1552;51.952;7.618;2023-05-21T11:34:34;15.45;;;12.85;;
3083;SDS011;1552;51.952;7.618;2023-05-21T11:39:55;17.98;;;12.55;;
3083;SDS011;1552;51.952;7.618;2023-05-21T11:42:31;18.60;;;12.63;;
3083;SDS011;1552;51.952;7.618;2023-05-21T11:44:58;15.88;;;12.70;;
3083;SDS011;1552;51.952;7.618;2023-05-21T11:47:25;18.50;;;12.05;;
3083;SDS011;1552;51.952;7.618;2023-05-21T11:49:53;16.50;;;13.45;;
3083;SDS011;1552;51.952;7.618;2023-05-21T11:52:20;16.52;;;12.75;;
3083;SDS011;1552;51.952;7.618;2023-05-21T11:54:47;15.68;;;11.85;;
3083;SDS011;1552;51.952;7.618;2023-05-21T11:57:17;17.38;;;12.48;;
3083;SDS011;1552;51.952;7.618;2023-05-21T11:59:43;16.38;;;12.55;;
3083;SDS011;1552;51.952;7.618;2023-05-21T12:02:12;13.52;;;11.60;;
3083;SDS011;1552;51.952;7.618;2023-05-21T12:04:39;15.30;;;11.35;;
3083;SDS011;1552;51.952;7.618;2023-05-21T12:07:08;15.07;;;13.35;;
3083;SDS011;1552;51.952;7.618;2023-05-21T12:09:37;16.92;;;12.00;;
3083;SDS011;1552;51.952;7.618;2023-05-21T12:12:04;16.85;;;13.23;;
3083;SDS011;1552;51.952;7.618;2023-05-21T12:14:30;17.00;;;13.30;;
3083;SDS011;1552;51.952;7.618;2023-05-21T12:16:57;16.63;;;12.63;;
3083;SDS011;1552;51.952;7.618;2023-05-21T12:19:23;19.02;;;13.07;;
3083;SDS011;1552;51.952;7.618;2023-05-21T12:21:49;16.20;;;12.95;;
3083;SDS011;1552;51.952;7.618;2023-05-21T12:24:17;14.75;;;10.93;;
3083;SDS011;1552;51.952;7.618;2023-05-21T12:26:43;15.35;;;12.43;;
3083;SDS011;1552;51.952;7.618;2023-05-21T12:29:10;15.82;;;10.93;;
3083;SDS011;1552;51.952;7.618;2023-05-21T12:31:45;16.13;;;12.48;;
3083;SDS011;1552;51.952;7.618;2023-05-21T12:34:12;13.65;;;11.68;;
3083;SDS011;1552;51.952;7.618;2023-05-21T12:36:39;13.38;;;11.48;;
3083;SDS011;1552;51.952;7.618;2023-05-21T12:39:10;18.58;;;12.40;;
3083;SDS011;1552;51.952;7.618;2023-05-21T12:41:37;14.23;;;11.77;;
3083;SDS011;1552;51.952;7.618;2023-05-21T12:44:04;13.85;;;11.65;;
3083;SDS011;1552;51.952;7.618;2023-05-21T12:46:32;17.30;;;12.63;;
3083;SDS011;1552;51.952;7.618;2023-05-21T12:48:59;14.60;;;11.82;;
3083;SDS011;1552;51.952;7.618;2023-05-21T12:51:25;14.50;;;11.82;;
3083;SDS011;1552;51.952;7.618;2023-05-21T12:54:02;17.05;;;12.07;;
3083;SDS011;1552;51.952;7.618;2023-05-21T12:56:28;18.88;;;13.82;;
3083;SDS011;1552;51.952;7.618;2023-05-21T12:59:12;16.55;;;13.00;;
3083;SDS011;1552;51.952;7.618;2023-05-21T13:01:39;15.68;;;11.98;;
3083;SDS011;1552;51.952;7.618;2023-05-21T13:04:06;15.13;;;12.15;;
3083;SDS011;1552;51.952;7.618;2023-05-21T13:06:40;15.63;;;12.10;;
3083;SDS011;1552;51.952;7.618;2023-05-21T13:09:06;15.00;;;11.82;;
3083;SDS011;1552;51.952;7.618;2023-05-21T13:11:32;14.73;;;11.70;;
3083;SDS011;1552;51.952;7.618;2023-05-21T13:13:59;16.67;;;12.30;;
3083;SDS011;1552;51.952;7.618;2023-05-21T13:16:26;14.10;;;11.55;;
3083;SDS011;1552;51.952;7.618;2023-05-21T13:18:53;14.98;;;12.10;;
3083;SDS011;1552;51.952;7.618;2023-05-21T13:21:19;14.65;;;11.63;;
3083;SDS011;1552;51.952;7.618;2023-05-21T13:23:45;14.90;;;12.15;;
3083;SDS011;1552;51.952;7.618;2023-05-21T13:26:11;14.63;;;12.13;;
3083;SDS011;1552;51.952;7.618;2023-05-21T13:28:38;17.02;;;12.23;;
3083;SDS011;1552;51.952;7.618;2023-05-21T13:31:04;15.38;;;12.07;;
3083;SDS011;1552;51.952;7.618;2023-05-21T13:33:32;17.55;;;12.30;;
3083;SDS011;1552;51.952;7.618;2023-05-21T13:35:58;14.07;;;11.25;;
3083;SDS011;1552;51.952;7.618;2023-05-21T13:38:25;17.63;;;12.05;;
3083;SDS011;1552;51.952;7.618;2023-05-21T13:40:51;16.83;;;12.05;;
3083;SDS011;1552;51.952;7.618;2023-05-21T13:43:17;14.18;;;11.02;;
3083;SDS011;1552;51.952;7.618;2023-05-21T13:45:43;15.60;;;12.60;;
3083;SDS011;1552;51.952;7.618;2023-05-21T13:48:12;20.15;;;13.13;;
3083;SDS011;1552;51.952;7.618;2023-05-21T13:50:40;18.85;;;12.13;;
3083;SDS011;1552;51.952;7.618;2023-05-21T13:53:06;13.60;;;11.80;;
3083;SDS011;1552;51.952;7.618;2023-05-21T13:55:32;14.75;;;13.02;;
3083;SDS011;1552;51.952;7.618;2023-05-21T13:57:59;17.67;;;12.48;;
3083;SDS011;1552;51.952;7.618;2023-05-21T14:00:25;14.60;;;12.55;;
3083;SDS011;1552;51.952;7.618;2023-05-21T14:02:51;14.60;;;12.52;;
3083;SDS011;1552;51.952;7.618;2023-05-21T14:05:18;15.88;;;12.68;;
3083;SDS011;1552;51.952;7.618;2023-05-21T14:07:45;15.15;;;12.30;;
3083;SDS011;1552;51.952;7.618;2023-05-21T14:10:12;12.82;;;10.98;;
3083;SDS011;1552;51.952;7.618;2023-05-21T14:12:38;14.70;;;11.90;;
3083;SDS011;1552;51.952;7.618;2023-05-21T14:15:06;14.75;;;12.65;;
3083;SDS011;1552;51.952;7.618;2023-05-21T14:17:32;18.15;;;12.18;;
3083;SDS011;1552;51.952;7.618;2023-05-21T14:19:59;16.40;;;13.05;;
3083;SDS011;1552;51.952;7.618;2023-05-21T14:22:25;13.18;;;10.95;;
3083;SDS011;1552;51.952;7.618;2023-05-21T14:24:53;14.93;;;11.73;;
3083;SDS011;1552;51.952;7.618;2023-05-21T14:27:20;16.42;;;12.18;;
3083;SDS011;1552;51.952;7.618;2023-05-21T14:29:46;14.93;;;12.45;;
3083;SDS011;1552;51.952;7.618;2023-05-21T14:32:12;14.57;;;12.13;;
3083;SDS011;1552;51.952;7.618;2023-05-21T14:34:39;19.27;;;12.25;;
3083;SDS011;1552;51.952;7.618;2023-05-21T14:37:05;14.02;;;11.10;;
3083;SDS011;1552;51.952;7.618;2023-05-21T14:39:31;12.75;;;11.45;;
3083;SDS011;1552;51.952;7.618;2023-05-21T14:41:59;12.25;;;10.93;;
3083;SDS011;1552;51.952;7.618;2023-05-21T14:44:27;17.73;;;12.88;;
3083;SDS011;1552;51.952;7.618;2023-05-21T14:46:53;15.93;;;12.38;;
3083;SDS011;1552;51.952;7.618;2023-05-21T14:49:20;13.75;;;11.95;;
3083;SDS011;1552;51.952;7.618;2023-05-21T14:51:46;16.00;;;12.23;;
3083;SDS011;1552;51.952;7.618;2023-05-21T14:54:12;13.68;;;11.85;;
3083;SDS011;1552;51.952;7.618;2023-05-21T14:56:39;14.27;;;12.02;;
3083;SDS011;1552;51.952;7.618;2023-05-21T14:59:06;13.50;;;11.60;;
3083;SDS011;1552;51.952;7.618;2023-05-21T15:01:35;14.65;;;11.30;;
3083;SDS011;1552;51.952;7.618;2023-05-21T15:04:01;16.95;;;12.20;;
3083;SDS011;1552;51.952;7.618;2023-05-21T15:06:27;15.85;;;12.90;;
3083;SDS011;1552;51.952;7.618;2023-05-21T15:08:54;16.88;;;13.23;;